createdAt,value
2019-01-06T06:40:05.700Z,41.30
2019-01-06T06:43:03.284Z,42.00
2019-01-06T06:45:50.402Z,41.60
2019-01-06T06:48:48.206Z,41.20
2019-01-06T06:51:37.072Z,41.90
2019-01-06T06:54:31.724Z,42.40
2019-01-06T06:57:54.431Z,42.40
2019-01-06T07:00:53.392Z,42.10
2019-01-06T07:03:45.283Z,42.50
2019-01-06T07:06:33.816Z,42.10
2019-01-06T07:09:31.147Z,43.00
2019-01-06T07:12:22.602Z,44.10
2019-01-06T07:15:09.727Z,46.40
2019-01-06T07:18:08.624Z,47.50
2019-01-06T07:20:59.454Z,43.90
2019-01-06T07:24:06.419Z,43.80
2019-01-06T07:27:04.272Z,43.40
2019-01-06T07:29:55.977Z,44.00
2019-01-06T07:32:47.297Z,44.00
2019-01-06T07:35:51.136Z,44.00
2019-01-06T08:26:19.156Z,45.40
2019-01-06T08:29:06.448Z,46.30
2019-01-06T08:32:01.072Z,45.90
2019-01-06T08:34:58.375Z,46.60
2019-01-06T08:37:52.816Z,46.10
2019-01-06T08:40:44.448Z,46.20
2019-01-06T08:43:39.251Z,46.20
2019-01-06T08:46:26.535Z,46.30
2019-01-06T08:49:15.091Z,46.40
2019-01-06T08:52:02.541Z,46.40
2019-01-06T08:55:06.187Z,46.50
2019-01-06T08:58:00.569Z,46.60
2019-01-06T09:01:04.177Z,46.70
2019-01-06T09:03:51.517Z,47.30
2019-01-06T09:06:38.676Z,46.90
2019-01-06T09:09:26.491Z,46.70
2019-01-06T09:12:13.707Z,46.70
2019-01-06T09:15:00.781Z,46.80
2019-01-06T09:17:58.311Z,46.80
2019-01-06T09:20:52.856Z,47.00
2019-01-06T09:23:40.402Z,46.90
2019-01-06T09:26:27.987Z,46.80
2019-01-06T09:29:16.568Z,47.30
2019-01-06T09:32:04.042Z,46.80
2019-01-06T09:34:51.621Z,46.90
2019-01-06T09:37:40.160Z,46.90
2019-01-06T09:40:27.557Z,47.10
2019-01-06T09:43:24.438Z,47.10
2019-01-06T09:46:11.725Z,46.70
2019-01-06T09:49:09.464Z,46.90
2019-01-06T09:52:07.413Z,47.20
2019-01-06T09:54:55.905Z,47.60
2019-01-06T09:57:49.146Z,48.00
2019-01-06T10:00:36.623Z,47.60
2019-01-06T10:03:31.183Z,47.80
2019-01-06T10:06:19.160Z,48.30
2019-01-06T10:09:06.315Z,48.50
2019-01-06T10:11:48.708Z,48.90
2019-01-06T10:14:45.960Z,48.90
2019-01-06T10:17:37.847Z,48.40
2019-01-06T10:20:26.437Z,48.90
2019-01-06T10:23:13.896Z,48.40
2019-01-06T10:26:17.023Z,48.50
2019-01-06T10:29:19.519Z,48.60
2019-01-06T10:32:17.232Z,48.50
2019-01-06T10:35:08.573Z,48.50
2019-01-06T10:38:08.896Z,48.90
2019-01-06T10:41:00.429Z,48.70
2019-01-06T10:43:55.909Z,49.60
2019-01-06T10:46:50.575Z,49.00
2019-01-06T10:49:39.845Z,49.60
2019-01-06T10:52:27.303Z,49.80
2019-01-06T10:55:14.624Z,50.70
2019-01-06T10:58:01.817Z,49.60
2019-01-06T11:00:49.191Z,49.90
2019-01-06T11:03:37.744Z,50.60
2019-01-06T11:07:03.521Z,51.10
2019-01-06T11:10:01.314Z,51.30
2019-01-06T11:12:58.527Z,50.70
2019-01-06T11:15:56.256Z,49.60
2019-01-06T11:18:48.326Z,49.80
2019-01-06T11:21:48.965Z,50.00
2019-01-06T11:24:37.625Z,50.90
2019-01-06T11:27:26.677Z,50.60
2019-01-06T11:30:14.270Z,51.30
2019-01-06T11:33:12.327Z,51.70
2019-01-06T11:36:10.791Z,51.40
2019-01-06T11:39:08.199Z,52.00
2019-01-06T11:42:08.942Z,51.30
2019-01-06T11:45:15.519Z,51.00
2019-01-06T11:48:07.843Z,50.20
2019-01-06T11:50:59.105Z,51.00
2019-01-06T11:53:46.494Z,50.40
2019-01-06T11:56:38.104Z,50.60
2019-01-06T11:59:26.632Z,50.20
2019-01-06T12:02:14.016Z,50.20
2019-01-06T12:05:01.320Z,49.90
2019-01-06T12:07:48.783Z,50.00
2019-01-06T12:10:36.849Z,51.10
2019-01-06T12:13:22.611Z,51.20
2019-01-06T12:16:20.405Z,50.80
2019-01-06T12:19:33.748Z,50.40
2019-01-06T12:22:32.172Z,50.80
2019-01-06T12:25:20.677Z,51.70
2019-01-06T12:28:21.593Z,51.60
2019-01-06T12:31:28.765Z,51.70
2019-01-06T12:34:26.504Z,52.40
2019-01-06T12:37:10.472Z,52.30
2019-01-06T12:40:02.425Z,52.30
2019-01-06T12:42:50.007Z,52.50
2019-01-06T12:45:38.522Z,52.50
2019-01-06T12:48:30.274Z,52.50
2019-01-06T12:51:17.332Z,52.50
2019-01-06T12:54:04.790Z,52.60
2019-01-06T12:56:51.952Z,52.80
2019-01-06T12:59:43.677Z,52.60
2019-01-06T13:02:30.928Z,52.60
2019-01-06T13:05:19.447Z,52.30
2019-01-06T13:08:11.159Z,53.00
2019-01-06T13:11:18.843Z,53.10
2019-01-06T13:14:07.353Z,52.30
2019-01-06T13:17:00.811Z,52.30
2019-01-06T13:19:48.444Z,52.60
2019-01-06T13:22:37.427Z,52.20
2019-01-06T13:25:31.936Z,52.20
2019-01-06T13:28:33.060Z,51.60
2019-01-06T13:31:20.281Z,51.50
2019-01-06T13:34:08.892Z,51.10
2019-01-06T13:37:03.539Z,51.10
2019-01-06T13:39:50.806Z,52.10
2019-01-06T13:42:38.298Z,52.70
2019-01-06T13:45:25.628Z,53.10
2019-01-06T13:48:12.963Z,53.30
2019-01-06T13:51:17.210Z,53.30
2019-01-06T13:54:04.328Z,53.70
2019-01-06T13:57:08.400Z,54.10
2019-01-06T14:00:09.267Z,54.40
2019-01-06T14:03:03.409Z,54.60
2019-01-06T14:05:54.449Z,54.80
2019-01-06T14:08:56.131Z,55.10
2019-01-06T14:11:56.631Z,55.40
2019-01-06T14:14:44.484Z,55.30
2019-01-06T14:17:51.314Z,55.30
2019-01-06T14:20:38.355Z,55.30
2019-01-06T14:23:25.560Z,55.60
2019-01-06T14:26:08.223Z,55.70
2019-01-06T14:29:00.859Z,55.70
2019-01-06T14:31:49.367Z,55.80
2019-01-06T14:34:28.395Z,55.80
2019-01-06T14:37:15.454Z,55.70
2019-01-06T14:40:04.317Z,55.80
2019-01-06T14:42:51.796Z,55.80
2019-01-06T14:45:46.159Z,54.90
2019-01-06T14:48:29.376Z,55.10
2019-01-06T14:51:27.175Z,54.80
2019-01-06T14:54:21.656Z,55.60
2019-01-06T14:57:19.285Z,56.30
2019-01-06T15:00:07.806Z,55.60
2019-01-06T15:02:56.796Z,55.30
2019-01-06T15:05:44.154Z,55.60
2019-01-06T15:08:39.747Z,54.80
2019-01-06T15:11:27.211Z,54.60
2019-01-06T15:14:14.517Z,54.50
2019-01-06T15:17:12.165Z,54.40
2019-01-06T15:20:00.674Z,53.60
2019-01-06T15:22:53.385Z,53.80
2019-01-06T15:25:54.104Z,53.80
2019-01-06T15:28:43.081Z,53.80
2019-01-06T15:31:37.574Z,53.70
2019-01-06T15:34:32.143Z,53.60
2019-01-06T15:37:26.596Z,53.30
2019-01-06T15:40:15.193Z,53.20
2019-01-06T15:43:02.295Z,54.20
2019-01-06T15:45:53.731Z,53.70
2019-01-06T15:48:44.212Z,54.00
2019-01-06T15:51:28.498Z,54.50
2019-01-06T15:54:35.648Z,53.90
2019-01-06T15:57:22.897Z,53.30
2019-01-06T16:00:21.538Z,53.70
2019-01-06T16:03:04.692Z,53.60
2019-01-06T16:05:59.307Z,54.10
2019-01-06T16:09:06.075Z,53.40
2019-01-06T16:11:53.278Z,53.40
2019-01-06T16:14:40.602Z,53.20
2019-01-06T16:17:27.791Z,53.00
2019-01-06T16:20:15.456Z,52.80
2019-01-06T16:23:09.886Z,52.70
2019-01-06T16:25:58.488Z,52.60
2019-01-06T16:28:49.885Z,52.50
2019-01-06T16:31:48.638Z,52.60
2019-01-06T16:34:43.337Z,52.80
2019-01-06T16:37:34.575Z,52.40
2019-01-06T16:40:36.232Z,52.70
2019-01-06T16:43:33.766Z,52.80
2019-01-06T16:46:24.133Z,52.80
2019-01-06T16:49:12.655Z,53.30
2019-01-06T16:52:00.019Z,52.70
2019-01-06T16:54:48.564Z,52.60
2019-01-06T16:57:42.938Z,52.70
2019-01-06T17:00:31.467Z,53.00
2019-01-06T17:03:18.815Z,52.80
2019-01-06T17:06:16.581Z,52.60
2019-01-06T17:09:14.185Z,52.40
2019-01-06T17:12:03.690Z,52.30
2019-01-06T17:14:51.223Z,52.30
2019-01-06T17:17:39.738Z,52.30
2019-01-06T17:20:27.249Z,52.30
2019-01-06T17:23:14.221Z,52.30
2019-01-06T17:25:56.179Z,52.60
2019-01-06T17:28:43.436Z,52.70
2019-01-06T17:31:33.528Z,53.40
2019-01-06T17:34:40.275Z,52.50
2019-01-06T17:37:28.611Z,52.80
2019-01-06T17:40:16.032Z,53.20
2019-01-06T17:43:00.491Z,53.20
2019-01-06T17:45:47.744Z,52.20
2019-01-06T17:48:35.137Z,52.70
2019-01-06T17:51:22.451Z,52.80
2019-01-06T17:54:17.060Z,52.20
2019-01-06T17:57:04.521Z,52.10
2019-01-06T18:00:06.204Z,52.30
2019-01-06T18:02:58.031Z,52.40
2019-01-06T18:05:58.653Z,52.40
2019-01-06T18:08:59.278Z,52.20
2019-01-06T18:11:47.783Z,52.20
2019-01-06T18:14:35.415Z,52.10
2019-01-06T18:17:24.012Z,52.20
2019-01-06T18:20:10.183Z,52.30
2019-01-06T18:23:14.039Z,52.60
2019-01-06T18:26:17.549Z,53.40
2019-01-06T18:29:07.730Z,53.10
2019-01-06T18:32:08.366Z,53.50
2019-01-06T18:35:14.916Z,53.60
2019-01-06T18:38:03.777Z,53.50
2019-01-06T18:40:55.355Z,52.90
2019-01-06T18:43:42.747Z,53.70
2019-01-06T18:46:46.608Z,54.60
2019-01-06T18:49:39.549Z,54.70
2019-01-06T18:52:34.117Z,54.70
2019-01-06T18:55:25.513Z,55.80
2019-01-06T18:58:20.691Z,55.80
2019-01-06T19:01:07.827Z,56.10
2019-01-06T19:04:11.629Z,56.40
2019-01-06T19:07:02.921Z,56.20
2019-01-06T19:09:54.352Z,56.00
2019-01-06T19:12:41.756Z,56.20
2019-01-06T19:15:24.065Z,56.30
2019-01-06T19:18:11.689Z,56.30
2019-01-06T19:21:15.336Z,56.00
2019-01-06T19:24:02.477Z,56.10
2019-01-06T19:27:28.419Z,55.50
2019-01-06T19:30:22.564Z,55.40
2019-01-06T19:33:23.018Z,55.20
2019-01-06T19:36:14.334Z,55.70
2019-01-06T19:39:05.739Z,56.10
2019-01-06T19:42:12.449Z,55.40
2019-01-06T19:44:59.613Z,55.10
2019-01-06T19:47:47.125Z,55.00
2019-01-06T19:50:34.423Z,55.00
2019-01-06T19:53:22.891Z,55.00
2019-01-06T19:56:26.454Z,54.50
2019-01-06T19:59:17.736Z,54.40
2019-01-06T20:02:06.223Z,54.40
2019-01-06T20:04:54.750Z,54.40
2019-01-06T20:07:56.659Z,54.30
2019-01-06T20:10:45.171Z,54.00
2019-01-06T20:13:32.203Z,53.00
2019-01-06T20:16:21.220Z,52.80
2019-01-06T20:19:09.843Z,52.70
2019-01-06T20:22:13.765Z,52.60
2019-01-06T20:25:17.453Z,52.40
2019-01-06T20:28:04.790Z,52.10
2019-01-06T20:31:02.202Z,51.90
2019-01-06T20:33:50.732Z,51.70
2019-01-06T20:36:39.239Z,51.50
2019-01-06T20:39:27.728Z,51.30
2019-01-06T20:42:11.040Z,51.20
2019-01-06T20:44:58.118Z,51.10
2019-01-06T20:47:58.598Z,51.00
2019-01-06T20:50:56.148Z,50.80
2019-01-06T20:53:59.498Z,50.70
2019-01-06T20:56:50.883Z,50.60
2019-01-06T20:59:39.522Z,50.30
2019-01-06T21:02:40.560Z,50.20
2019-01-06T21:05:41.188Z,50.10
2019-01-06T21:08:22.255Z,50.00
2019-01-06T21:11:05.924Z,49.00
2019-01-06T21:13:53.251Z,49.20
2019-01-06T21:17:00.233Z,49.40
2019-01-06T21:19:47.216Z,49.30
2019-01-06T21:22:41.994Z,49.50
2019-01-06T21:25:29.269Z,50.30
2019-01-06T21:28:16.749Z,50.90
2019-01-06T21:31:04.237Z,50.40
2019-01-06T21:34:01.854Z,50.00
2019-01-06T21:36:56.406Z,50.00
2019-01-06T21:39:47.719Z,49.80
2019-01-06T21:42:39.246Z,49.40
2019-01-06T21:45:23.940Z,49.10
2019-01-06T21:48:18.622Z,49.00
2019-01-06T21:51:16.222Z,48.80
2019-01-06T21:54:07.759Z,48.60
2019-01-06T21:57:05.936Z,48.50
2019-01-06T21:59:53.292Z,48.20
2019-01-06T22:02:40.469Z,48.10
2019-01-06T22:05:28.981Z,48.00
2019-01-06T22:08:26.349Z,47.90
2019-01-06T22:11:13.401Z,47.60
2019-01-06T22:14:00.780Z,47.50
2019-01-06T22:16:58.135Z,47.60
2019-01-06T22:19:48.573Z,47.40
2019-01-06T22:22:35.827Z,47.30
2019-01-06T22:25:39.540Z,47.30
2019-01-06T22:28:26.576Z,47.10
2019-01-06T22:31:25.382Z,47.00
2019-01-06T22:34:32.543Z,46.90
2019-01-06T22:37:24.421Z,47.00
2019-01-06T22:40:18.979Z,47.00
2019-01-06T22:43:06.748Z,47.00
2019-01-06T22:45:55.264Z,46.80
2019-01-06T22:48:55.937Z,46.80
2019-01-06T22:51:43.342Z,46.60
2019-01-06T22:54:31.879Z,46.80
2019-01-06T22:57:23.329Z,46.40
2019-01-06T23:00:12.779Z,46.40
2019-01-06T23:03:00.171Z,46.30
2019-01-06T23:05:51.444Z,46.20
2019-01-06T23:08:58.345Z,46.10
2019-01-06T23:11:55.931Z,46.00
2019-01-06T23:14:42.835Z,46.10
2019-01-06T23:17:46.495Z,46.10
2019-01-06T23:20:34.102Z,45.90
2019-01-06T23:23:21.323Z,45.90
2019-01-06T23:26:12.616Z,45.80
2019-01-06T23:29:10.179Z,45.60
2019-01-06T23:31:57.320Z,45.60
2019-01-06T23:34:46.020Z,45.60
2019-01-06T23:37:40.464Z,45.40
2019-01-06T23:40:27.873Z,45.40
2019-01-06T23:43:15.215Z,45.10
2019-01-06T23:46:04.693Z,45.10
2019-01-06T23:48:53.320Z,45.10
2019-01-06T23:51:40.365Z,45.00
2019-01-06T23:54:38.025Z,44.80
2019-01-06T23:57:35.814Z,44.80
